createdAt,value
2023-03-16T00:00:55.912Z,42.22
2023-03-16T00:03:23.471Z,43.88
2023-03-16T00:05:54.166Z,43.80
2023-03-16T00:08:21.571Z,40.20
2023-03-16T00:10:49.372Z,40.92
2023-03-16T00:13:23.972Z,51.63
2023-03-16T00:15:58.900Z,56.00
2023-03-16T00:18:29.136Z,56.67
2023-03-16T00:21:05.405Z,53.28
2023-03-16T00:23:35.901Z,59.40
2023-03-16T00:26:08.353Z,52.33
2023-03-16T00:28:36.880Z,57.40
2023-03-16T00:31:08.264Z,59.10
2023-03-16T00:33:35.694Z,48.13
2023-03-16T00:36:05.481Z,60.78
2023-03-16T00:38:36.492Z,61.97
2023-03-16T00:41:07.751Z,61.33
2023-03-16T00:43:46.674Z,53.28
2023-03-16T00:46:17.878Z,64.68
2023-03-16T00:48:47.426Z,58.40
2023-03-16T00:51:18.053Z,56.40
2023-03-16T00:53:46.781Z,58.20
2023-03-16T00:56:14.814Z,55.10
2023-03-16T00:58:43.448Z,55.80
2023-03-16T01:01:19.630Z,49.65
2023-03-16T01:03:47.492Z,54.58
2023-03-16T01:06:20.191Z,52.57
2023-03-16T01:08:47.424Z,55.25
2023-03-16T01:11:20.627Z,52.70
2023-03-16T01:13:50.079Z,42.15
2023-03-16T01:16:19.101Z,38.58
2023-03-16T01:18:47.590Z,47.55
2023-03-16T01:21:16.106Z,41.38
2023-03-16T01:23:44.356Z,46.87
2023-03-16T01:26:12.686Z,49.78
2023-03-16T01:28:39.934Z,42.20
2023-03-16T01:31:11.720Z,42.58
2023-03-16T01:33:39.369Z,47.45
2023-03-16T01:36:14.221Z,52.33
2023-03-16T01:38:42.299Z,43.43
2023-03-16T01:41:10.635Z,52.90
2023-03-16T01:43:40.923Z,49.23
2023-03-16T01:46:19.101Z,44.57
2023-03-16T01:49:19.987Z,49.40
2023-03-16T01:52:08.653Z,45.70
2023-03-16T01:54:45.822Z,44.33
2023-03-16T01:57:22.673Z,41.10
2023-03-16T01:59:54.491Z,38.67
2023-03-16T02:02:30.249Z,34.17
2023-03-16T02:05:09.825Z,39.50
2023-03-16T02:07:46.973Z,50.27
2023-03-16T02:10:18.391Z,42.67
2023-03-16T02:12:47.395Z,37.13
2023-03-16T02:15:15.328Z,46.03
2023-03-16T02:17:46.308Z,44.53
2023-03-16T02:20:19.168Z,44.27
2023-03-16T02:22:54.164Z,36.67
2023-03-16T02:25:30.224Z,41.87
2023-03-16T02:28:20.341Z,41.80
2023-03-16T02:30:48.771Z,39.63
2023-03-16T02:33:19.602Z,40.37
2023-03-16T02:35:47.010Z,32.73
2023-03-16T02:38:14.642Z,42.70
2023-03-16T02:40:43.987Z,45.07
2023-03-16T02:43:16.888Z,48.00
2023-03-16T02:45:51.398Z,67.93
2023-03-16T02:48:32.343Z,68.70
2023-03-16T02:51:00.001Z,59.70
2023-03-16T02:53:28.133Z,49.60
2023-03-16T02:55:55.523Z,46.93
2023-03-16T02:58:23.119Z,53.80
2023-03-16T03:00:50.623Z,47.20
2023-03-16T03:03:18.972Z,51.37
2023-03-16T03:05:46.406Z,57.67
2023-03-16T03:08:14.626Z,55.67
2023-03-16T03:10:41.917Z,62.50
2023-03-16T03:13:09.476Z,51.70
2023-03-16T03:15:36.768Z,42.73
2023-03-16T03:18:04.508Z,52.00
2023-03-16T03:20:31.894Z,45.30
2023-03-16T03:22:59.548Z,47.73
2023-03-16T03:25:26.874Z,54.70
2023-03-16T03:27:54.854Z,54.13
2023-03-16T03:30:24.929Z,45.03
2023-03-16T03:32:52.733Z,45.00
2023-03-16T03:35:21.516Z,56.37
2023-03-16T03:37:50.548Z,44.27
2023-03-16T03:40:20.199Z,48.10
2023-03-16T03:42:48.442Z,46.27
2023-03-16T03:45:16.588Z,48.83
2023-03-16T03:47:44.607Z,47.07
2023-03-16T03:50:14.015Z,46.10
2023-03-16T03:52:41.845Z,43.03
2023-03-16T03:55:10.817Z,40.93
2023-03-16T03:57:38.338Z,47.40
2023-03-16T04:00:09.858Z,46.13
2023-03-16T04:02:38.993Z,44.40
2023-03-16T04:05:07.903Z,40.57
2023-03-16T04:07:35.612Z,42.43
2023-03-16T04:10:03.114Z,47.93
2023-03-16T04:12:30.656Z,45.47
2023-03-16T04:14:58.015Z,47.47
2023-03-16T04:17:25.784Z,44.60
2023-03-16T04:19:53.064Z,41.13
2023-03-16T04:22:23.266Z,45.70
2023-03-16T04:24:52.330Z,45.17
2023-03-16T04:27:19.864Z,48.17
2023-03-16T04:29:47.175Z,43.37
2023-03-16T04:32:14.761Z,49.83
2023-03-16T04:34:43.915Z,44.70
2023-03-16T04:37:12.004Z,51.40
2023-03-16T04:39:39.411Z,49.23
2023-03-16T04:42:07.240Z,47.73
2023-03-16T04:44:34.467Z,57.03
2023-03-16T04:47:05.039Z,38.10
2023-03-16T04:49:32.288Z,56.78
2023-03-16T04:52:09.711Z,51.73
2023-03-16T04:54:37.004Z,41.43
2023-03-16T04:57:05.791Z,44.00
2023-03-16T04:59:33.152Z,49.53
2023-03-16T05:02:01.108Z,46.63
2023-03-16T05:04:28.554Z,43.77
2023-03-16T05:06:56.121Z,47.47
2023-03-16T05:09:23.367Z,54.03
2023-03-16T05:11:50.967Z,45.00
2023-03-16T05:14:18.276Z,47.93
2023-03-16T05:16:45.798Z,48.43
2023-03-16T05:19:13.082Z,46.80
2023-03-16T05:21:40.683Z,50.97
2023-03-16T05:24:08.627Z,57.23
2023-03-16T05:26:36.191Z,55.23
2023-03-16T05:29:03.737Z,49.13
2023-03-16T05:31:35.016Z,52.70
2023-03-16T05:34:02.513Z,47.53
2023-03-16T05:36:30.112Z,64.47
2023-03-16T05:38:58.365Z,71.00
2023-03-16T05:41:25.960Z,90.33
2023-03-16T05:43:53.279Z,81.83
2023-03-16T05:46:21.071Z,85.35
2023-03-16T05:48:48.383Z,132.13
2023-03-16T05:51:16.075Z,112.30
2023-03-16T05:53:46.662Z,101.27
2023-03-16T05:56:14.236Z,91.27
2023-03-16T05:58:42.337Z,84.30
2023-03-16T06:01:11.338Z,78.77
2023-03-16T06:03:38.863Z,60.20
2023-03-16T06:06:06.595Z,63.70
2023-03-16T06:08:33.829Z,63.03
2023-03-16T06:11:01.566Z,62.77
2023-03-16T06:13:28.790Z,59.87
2023-03-16T06:15:56.415Z,63.30
2023-03-16T06:18:23.702Z,64.47
2023-03-16T06:20:51.525Z,54.17
2023-03-16T06:23:20.411Z,57.40
2023-03-16T06:25:49.120Z,56.80
2023-03-16T06:28:16.973Z,56.03
2023-03-16T06:30:44.475Z,59.50
2023-03-16T06:33:11.799Z,61.08
2023-03-16T06:35:39.515Z,55.43
2023-03-16T06:38:06.801Z,59.87
2023-03-16T06:40:34.477Z,54.33
2023-03-16T06:43:02.208Z,54.30
2023-03-16T06:45:29.905Z,55.07
2023-03-16T06:47:57.248Z,56.30
2023-03-16T06:50:25.379Z,58.80
2023-03-16T06:52:52.751Z,56.87
2023-03-16T06:55:20.407Z,53.07
2023-03-16T06:57:47.734Z,50.27
2023-03-16T07:00:16.207Z,53.10
2023-03-16T07:02:43.960Z,51.77
2023-03-16T07:05:15.214Z,54.40
2023-03-16T07:07:43.734Z,51.13
2023-03-16T07:10:17.692Z,52.67
2023-03-16T07:12:45.708Z,49.55
2023-03-16T07:15:14.265Z,47.33
2023-03-16T07:17:42.723Z,49.78
2023-03-16T07:20:12.925Z,47.88
2023-03-16T07:22:41.921Z,46.33
2023-03-16T07:25:11.567Z,46.00
2023-03-16T07:27:39.037Z,47.17
2023-03-16T07:30:07.520Z,46.72
2023-03-16T07:32:34.899Z,46.30
2023-03-16T07:35:02.570Z,46.22
2023-03-16T07:37:29.875Z,48.33
2023-03-16T07:39:57.466Z,43.78
2023-03-16T07:42:24.771Z,38.53
2023-03-16T07:44:52.384Z,41.13
2023-03-16T07:47:19.853Z,39.17
2023-03-16T07:49:47.419Z,34.95
2023-03-16T07:52:14.698Z,30.77
2023-03-16T07:54:45.057Z,30.48
2023-03-16T07:57:12.333Z,35.70
2023-03-16T07:59:40.411Z,32.03
2023-03-16T08:02:16.254Z,32.65
2023-03-16T08:04:45.284Z,32.42
2023-03-16T08:07:15.047Z,30.50
2023-03-16T08:09:43.801Z,30.17
2023-03-16T08:12:11.964Z,25.73
2023-03-16T08:14:39.724Z,28.80
2023-03-16T08:17:07.656Z,28.60
2023-03-16T08:19:35.272Z,25.77
2023-03-16T08:22:03.802Z,33.30
2023-03-16T08:24:33.234Z,34.55
2023-03-16T08:27:01.179Z,38.80
2023-03-16T08:29:29.104Z,30.00
2023-03-16T08:31:57.645Z,22.17
2023-03-16T08:34:27.019Z,23.17
2023-03-16T08:36:55.450Z,23.98
2023-03-16T08:39:23.178Z,20.45
2023-03-16T08:41:51.148Z,25.13
2023-03-16T08:44:20.191Z,20.63
2023-03-16T08:46:47.616Z,22.70
2023-03-16T08:49:15.482Z,23.92
2023-03-16T08:51:44.763Z,18.58
2023-03-16T08:54:13.080Z,21.95
2023-03-16T08:56:40.448Z,16.85
2023-03-16T08:59:14.150Z,16.05
2023-03-16T09:01:50.999Z,18.90
2023-03-16T09:04:18.792Z,16.23
2023-03-16T09:06:55.812Z,14.73
2023-03-16T09:09:31.205Z,12.05
2023-03-16T09:11:59.104Z,12.45
2023-03-16T09:14:26.825Z,12.82
2023-03-16T09:16:54.389Z,10.80
2023-03-16T09:19:22.954Z,12.25
2023-03-16T09:21:50.400Z,9.23
2023-03-16T09:24:18.557Z,10.65
2023-03-16T09:26:45.928Z,9.65
2023-03-16T09:29:14.860Z,10.88
2023-03-16T09:31:43.456Z,9.20
2023-03-16T09:34:11.944Z,12.43
2023-03-16T09:36:39.515Z,15.52
2023-03-16T09:39:07.705Z,14.80
2023-03-16T09:42:10.306Z,16.17
2023-03-16T09:45:11.283Z,12.35
2023-03-16T09:47:41.945Z,12.35
2023-03-16T09:50:24.439Z,11.80
2023-03-16T09:53:27.142Z,8.68
2023-03-16T09:56:16.891Z,10.88
2023-03-16T09:58:44.345Z,7.70
2023-03-16T10:01:15.076Z,8.15
2023-03-16T10:03:59.114Z,6.75
2023-03-16T10:06:28.322Z,9.23
2023-03-16T10:09:20.484Z,28.88
2023-03-16T10:11:56.932Z,9.13
2023-03-16T10:14:51.191Z,8.50
2023-03-16T10:17:28.450Z,9.13
2023-03-16T10:20:23.703Z,7.43
2023-03-16T10:22:53.119Z,10.00
2023-03-16T10:25:33.163Z,10.50
2023-03-16T10:28:01.552Z,9.07
2023-03-16T10:30:37.553Z,7.75
2023-03-16T10:33:27.778Z,7.82
2023-03-16T10:36:24.365Z,6.63
2023-03-16T10:39:00.793Z,6.10
2023-03-16T10:41:38.414Z,4.32
2023-03-16T10:44:27.331Z,4.80
2023-03-16T10:47:08.407Z,5.03
2023-03-16T10:49:44.510Z,6.88
2023-03-16T10:52:20.581Z,6.45
2023-03-16T10:55:10.791Z,5.88
2023-03-16T10:57:43.692Z,5.80
2023-03-16T11:00:13.938Z,6.13
2023-03-16T11:02:42.657Z,6.45
2023-03-16T11:05:32.845Z,5.00
2023-03-16T11:08:22.299Z,5.40
2023-03-16T11:10:58.543Z,5.82
2023-03-16T11:13:35.957Z,4.93
2023-03-16T11:16:24.116Z,6.95
2023-03-16T11:18:58.948Z,4.90
2023-03-16T11:22:16.519Z,5.18
2023-03-16T11:24:52.865Z,5.93
2023-03-16T11:27:49.177Z,6.85
2023-03-16T11:30:35.385Z,4.18
2023-03-16T11:33:04.233Z,5.53
2023-03-16T11:36:01.146Z,4.68
2023-03-16T11:39:11.201Z,7.38
2023-03-16T11:42:39.526Z,5.70
2023-03-16T11:45:19.104Z,5.22
2023-03-16T11:48:25.101Z,4.38
2023-03-16T11:51:37.045Z,5.15
2023-03-16T11:54:28.408Z,10.40
2023-03-16T11:57:38.908Z,9.30
2023-03-16T12:00:15.059Z,7.70
2023-03-16T12:03:38.214Z,11.07
2023-03-16T12:06:24.490Z,8.70
2023-03-16T12:09:04.601Z,6.82
2023-03-16T12:11:42.445Z,11.63
2023-03-16T12:14:30.918Z,11.98
2023-03-16T12:17:21.201Z,9.43
2023-03-16T12:19:54.542Z,5.80
2023-03-16T12:22:41.461Z,7.82
2023-03-16T12:25:25.845Z,3.40
2023-03-16T12:27:57.092Z,5.28
2023-03-16T12:30:41.195Z,8.98
2023-03-16T12:33:46.544Z,7.50
2023-03-16T12:36:55.976Z,8.40
2023-03-16T12:39:51.634Z,7.15
2023-03-16T12:43:10.023Z,10.52
2023-03-16T12:45:49.754Z,7.28
2023-03-16T12:48:32.357Z,7.45
2023-03-16T12:51:05.166Z,5.43
2023-03-16T12:53:51.989Z,8.60
2023-03-16T12:56:53.991Z,6.13
2023-03-16T12:59:26.210Z,7.13
2023-03-16T13:01:59.870Z,5.13
2023-03-16T13:04:38.868Z,6.60
2023-03-16T13:07:19.832Z,6.18
2023-03-16T13:10:16.633Z,6.97
2023-03-16T13:12:46.314Z,7.72
2023-03-16T13:15:20.590Z,6.75
2023-03-16T13:18:09.998Z,7.90
2023-03-16T13:21:00.993Z,8.23
2023-03-16T13:24:26.012Z,8.68
2023-03-16T13:27:01.412Z,9.10
2023-03-16T13:29:32.740Z,7.22
2023-03-16T13:32:07.661Z,7.25
2023-03-16T13:34:58.844Z,6.18
2023-03-16T13:37:30.005Z,6.85
2023-03-16T13:40:01.886Z,6.60
2023-03-16T13:42:33.688Z,5.40
2023-03-16T13:45:15.629Z,6.35
2023-03-16T13:47:45.494Z,10.40
2023-03-16T13:50:16.109Z,10.57
2023-03-16T13:52:52.887Z,6.93
2023-03-16T13:55:34.788Z,7.32
2023-03-16T13:58:04.121Z,8.90
2023-03-16T14:00:37.327Z,8.73
2023-03-16T14:03:21.975Z,6.03
2023-03-16T14:05:49.681Z,3.50
2023-03-16T14:08:24.420Z,6.35
2023-03-16T14:10:59.809Z,4.57
2023-03-16T14:13:29.167Z,6.18
2023-03-16T14:16:18.371Z,5.60
2023-03-16T14:18:52.827Z,7.35
2023-03-16T14:21:26.280Z,7.95
2023-03-16T14:24:06.978Z,5.97
2023-03-16T14:26:48.461Z,5.55
2023-03-16T14:29:31.523Z,6.63
2023-03-16T14:32:03.397Z,6.30
2023-03-16T14:34:39.871Z,6.47
2023-03-16T14:37:12.333Z,4.53
2023-03-16T14:39:41.304Z,5.68
2023-03-16T14:42:29.672Z,7.20
2023-03-16T14:45:00.961Z,5.32
2023-03-16T14:47:42.461Z,4.22
2023-03-16T14:50:25.535Z,3.72
2023-03-16T14:52:57.392Z,7.07
2023-03-16T14:55:25.824Z,8.35
2023-03-16T14:57:53.402Z,6.90
2023-03-16T15:00:23.036Z,6.30
2023-03-16T15:03:15.390Z,5.72
2023-03-16T15:05:48.629Z,7.97
2023-03-16T15:08:33.747Z,6.47
2023-03-16T15:11:06.737Z,7.15
2023-03-16T15:13:35.211Z,4.53
2023-03-16T15:16:04.658Z,5.65
2023-03-16T15:18:33.925Z,4.65
2023-03-16T15:21:03.011Z,4.90
2023-03-16T15:23:31.363Z,4.32
2023-03-16T15:26:00.711Z,6.05
2023-03-16T15:28:28.722Z,6.10
2023-03-16T15:30:59.400Z,8.10
2023-03-16T15:33:27.606Z,13.07
2023-03-16T15:36:02.166Z,8.85
2023-03-16T15:38:39.853Z,7.05
2023-03-16T15:41:14.608Z,9.23
2023-03-16T15:43:42.060Z,9.32
2023-03-16T15:46:10.583Z,8.27
2023-03-16T15:48:38.704Z,8.15
2023-03-16T15:51:16.242Z,6.65
2023-03-16T15:54:05.014Z,6.63
2023-03-16T15:56:52.839Z,6.45
2023-03-16T15:59:22.310Z,6.32
2023-03-16T16:01:52.548Z,7.40
2023-03-16T16:04:25.028Z,5.93
2023-03-16T16:06:55.429Z,6.78
2023-03-16T16:09:23.481Z,4.72
2023-03-16T16:11:51.568Z,8.82
2023-03-16T16:14:26.606Z,10.63
2023-03-16T16:16:54.690Z,7.63
2023-03-16T16:19:22.115Z,7.30
2023-03-16T16:21:49.878Z,5.22
2023-03-16T16:24:18.580Z,5.95
2023-03-16T16:26:55.610Z,11.45
2023-03-16T16:29:32.181Z,16.70
2023-03-16T16:32:01.005Z,13.63
2023-03-16T16:34:28.741Z,12.15
2023-03-16T16:36:57.813Z,11.45
2023-03-16T16:39:25.523Z,12.32
2023-03-16T16:41:56.756Z,12.10
2023-03-16T16:44:33.833Z,11.60
2023-03-16T16:47:03.724Z,11.48
2023-03-16T16:49:31.583Z,16.85
2023-03-16T16:51:59.718Z,14.52
2023-03-16T16:54:32.166Z,15.00
2023-03-16T16:57:01.690Z,16.17
2023-03-16T16:59:37.011Z,12.85
2023-03-16T17:02:30.905Z,16.33
2023-03-16T17:04:58.773Z,14.20
2023-03-16T17:07:26.635Z,15.88
2023-03-16T17:09:54.284Z,15.73
2023-03-16T17:12:24.644Z,13.77
2023-03-16T17:14:52.286Z,15.73
2023-03-16T17:17:20.391Z,20.98
2023-03-16T17:19:48.578Z,19.95
2023-03-16T17:22:24.958Z,22.58
2023-03-16T17:24:54.110Z,29.63
2023-03-16T17:27:33.179Z,32.70
2023-03-16T17:30:00.812Z,29.35
2023-03-16T17:32:28.647Z,32.47
2023-03-16T17:34:56.404Z,31.30
2023-03-16T17:37:24.133Z,30.13
2023-03-16T17:39:52.737Z,28.95
2023-03-16T17:42:23.216Z,28.83
2023-03-16T17:44:53.310Z,37.08
2023-03-16T17:47:27.588Z,30.13
2023-03-16T17:49:57.156Z,28.50
2023-03-16T17:52:29.368Z,17.50
2023-03-16T17:54:57.359Z,16.10
2023-03-16T17:57:31.322Z,21.55
2023-03-16T18:00:01.921Z,21.80
2023-03-16T18:02:57.753Z,18.55
2023-03-16T18:05:31.279Z,19.48
2023-03-16T18:08:22.787Z,33.67
2023-03-16T18:11:01.122Z,40.17
2023-03-16T18:13:38.001Z,29.20
2023-03-16T18:16:07.797Z,31.80
2023-03-16T18:18:39.520Z,35.03
2023-03-16T18:21:07.261Z,34.75
2023-03-16T18:23:36.982Z,51.47
2023-03-16T18:26:06.390Z,44.78
2023-03-16T18:28:35.241Z,41.00
2023-03-16T18:31:05.275Z,34.10
2023-03-16T18:33:38.396Z,23.27
2023-03-16T18:36:18.328Z,30.15
2023-03-16T18:38:50.546Z,25.10
2023-03-16T18:41:25.292Z,31.77
2023-03-16T18:43:58.171Z,28.48
2023-03-16T18:46:35.583Z,28.80
2023-03-16T18:49:34.179Z,34.65
2023-03-16T18:52:01.861Z,31.42
2023-03-16T18:54:36.851Z,33.33
2023-03-16T18:57:14.463Z,31.58
2023-03-16T18:59:42.391Z,35.58
2023-03-16T19:02:39.773Z,34.53
2023-03-16T19:05:31.828Z,30.83
2023-03-16T19:07:59.937Z,36.78
2023-03-16T19:10:56.483Z,29.88
2023-03-16T19:13:26.368Z,25.20
2023-03-16T19:15:57.883Z,23.73
2023-03-16T19:18:26.348Z,26.13
2023-03-16T19:20:56.593Z,23.92
2023-03-16T19:23:31.063Z,29.65
2023-03-16T19:25:59.271Z,26.85
2023-03-16T19:28:34.858Z,34.33
2023-03-16T19:31:19.380Z,33.58
2023-03-16T19:33:48.402Z,36.25
2023-03-16T19:36:26.585Z,36.25
2023-03-16T19:38:54.483Z,46.45
2023-03-16T19:41:35.585Z,41.10
2023-03-16T19:44:26.407Z,49.67
2023-03-16T19:46:56.277Z,49.03
2023-03-16T19:49:27.214Z,43.92
2023-03-16T19:51:56.823Z,41.08
2023-03-16T19:54:34.005Z,73.47
2023-03-16T19:57:12.513Z,87.65
2023-03-16T19:59:41.924Z,75.50
2023-03-16T20:02:35.875Z,56.08
2023-03-16T20:05:03.953Z,50.97
2023-03-16T20:07:37.942Z,51.55
2023-03-16T20:10:12.323Z,47.00
2023-03-16T20:12:42.664Z,39.67
2023-03-16T20:15:21.068Z,43.63
2023-03-16T20:17:51.199Z,40.13
2023-03-16T20:20:29.735Z,40.72
2023-03-16T20:22:59.758Z,54.15
2023-03-16T20:25:32.748Z,47.45
2023-03-16T20:28:03.998Z,44.83
2023-03-16T20:30:32.270Z,53.97
2023-03-16T20:33:00.222Z,55.38
2023-03-16T20:35:32.527Z,57.72
2023-03-16T20:38:00.524Z,69.25
2023-03-16T20:40:28.418Z,72.82
2023-03-16T20:42:56.536Z,61.80
2023-03-16T20:45:30.614Z,61.45
2023-03-16T20:47:58.529Z,56.60
2023-03-16T20:50:31.016Z,64.68
2023-03-16T20:52:58.651Z,57.28
2023-03-16T20:55:29.441Z,59.50
2023-03-16T20:57:57.703Z,60.92
2023-03-16T21:00:33.322Z,59.05
2023-03-16T21:03:05.073Z,58.63
2023-03-16T21:05:32.545Z,48.83
2023-03-16T21:08:00.130Z,52.92
2023-03-16T21:10:28.442Z,49.33
2023-03-16T21:12:57.823Z,40.75
2023-03-16T21:15:30.589Z,40.30
2023-03-16T21:18:07.418Z,33.72
2023-03-16T21:20:36.775Z,37.05
2023-03-16T21:23:04.571Z,30.48
2023-03-16T21:25:38.613Z,28.33
2023-03-16T21:28:06.248Z,32.97
2023-03-16T21:30:39.883Z,37.83
2023-03-16T21:33:35.541Z,50.92
2023-03-16T21:36:07.236Z,66.93
2023-03-16T21:38:35.137Z,68.40
2023-03-16T21:41:02.387Z,74.72
2023-03-16T21:43:31.565Z,76.65
2023-03-16T21:45:59.701Z,84.13
2023-03-16T21:48:53.056Z,83.15
2023-03-16T21:51:27.972Z,74.70
2023-03-16T21:53:56.020Z,78.38
2023-03-16T21:56:26.190Z,75.38
2023-03-16T21:58:54.953Z,77.22
2023-03-16T22:01:30.444Z,67.75
2023-03-16T22:04:09.046Z,73.30
2023-03-16T22:06:36.798Z,76.45
2023-03-16T22:09:04.504Z,82.68
2023-03-16T22:11:32.207Z,85.63
2023-03-16T22:14:00.087Z,84.18
2023-03-16T22:16:34.983Z,94.43
2023-03-16T22:19:04.312Z,98.38
2023-03-16T22:21:41.285Z,95.20
2023-03-16T22:24:30.068Z,92.05
2023-03-16T22:26:58.129Z,96.68
2023-03-16T22:29:36.726Z,86.57
2023-03-16T22:32:18.341Z,79.70
2023-03-16T22:34:48.448Z,84.03
2023-03-16T22:37:24.223Z,79.20
2023-03-16T22:39:53.130Z,76.07
2023-03-16T22:42:35.882Z,77.15
2023-03-16T22:45:17.080Z,72.68
2023-03-16T22:47:44.887Z,76.57
2023-03-16T22:50:18.004Z,73.57
2023-03-16T22:52:50.167Z,77.45
2023-03-16T22:55:29.755Z,86.00
2023-03-16T22:58:30.339Z,78.50
2023-03-16T23:01:02.490Z,76.20
2023-03-16T23:03:30.302Z,72.90
2023-03-16T23:05:57.948Z,79.40
2023-03-16T23:08:26.778Z,77.15
2023-03-16T23:10:56.069Z,70.78
2023-03-16T23:13:25.609Z,58.75
2023-03-16T23:15:53.770Z,70.25
2023-03-16T23:18:25.458Z,79.30
2023-03-16T23:20:53.314Z,80.07
2023-03-16T23:23:21.144Z,78.53
2023-03-16T23:25:48.871Z,87.35
2023-03-16T23:28:23.119Z,86.65
2023-03-16T23:30:51.157Z,82.40
2023-03-16T23:33:18.507Z,76.18
2023-03-16T23:35:47.072Z,83.03
2023-03-16T23:38:14.444Z,75.50
2023-03-16T23:40:42.303Z,81.63
2023-03-16T23:43:09.810Z,78.20
2023-03-16T23:45:39.056Z,81.47
2023-03-16T23:48:13.966Z,90.07
2023-03-16T23:50:42.755Z,88.70
2023-03-16T23:53:17.622Z,76.53
2023-03-16T23:55:47.002Z,74.75
2023-03-16T23:58:16.322Z,84.60
